Terminal Aerodrome Forecast
Issued by NWS Green Bay, WI

Home | Current Version | Previous Version | Text Only | Print | Product List | Glossary Off
Versions: 1 2 3 4 5 6 7 8 9 10 11 12 13 14 15 16 17 18 19 20 21 22 23 24 25 26 27 28 29 30 31 32 33 34 35 36 37

000
FTUS43 KGRB 241100 RRA
TAFGRB
TAF
KGRB 241145Z 2412/2512 27007KT P6SM BKN018 OVC050
     FM241600 29008KT P6SM SCT025 BKN100
     FM242200 35007KT 6SM -SN BKN025 OVC040
     FM250100 04011KT 5SM -SN BKN018 OVC035
     FM250600 04015G24KT P6SM -SN BKN020=

USA.gov is the U.S. government's official web portal to all federal, state and local government web resources and services.